• Join FlightAware (Why Join?)
  • Login
  • US Flag 
02:30AM EDT


 

Airport Tracker/Info


-or-


 

Live Flight TrackerFlight Track Log ✈ DAL695 ✈ 24-Jul-2013 ✈ KJFK - KMCO

Flight Track Log - Related Links

Times and Time Zones

All times are in EDT time to prevent confusion due to time zone crossing. See the DAL695 flight status page for this flight to view local times or setup timezone preferences in your user account.

Time Position Orientation Groundspeed Altitude Reporting Facility
EDT Latitude Longitude Course Direction KTS MPH feet Rate Location/Type
11:18AM 40.6500 -73.7000 270° West 221 254 2,600  Level New York TRACON
11:19AM 40.6000 -73.7500 217° Southwest 264 304 4,400 2,280 Climbing New York TRACON
11:20AM 40.3398 -74.2449 232° Southwest  Level FlightAware Approximate
11:20AM 40.5500 -73.8333 232° Southwest 267 307 7,200  Level New York TRACON
11:21AM 40.2656 -74.3677 217° Southwest  Level FlightAware Approximate
11:21AM 40.5167 -73.9000 237° Southwest 278 320 9,700  Level New York TRACON
11:22AM 40.2000 -74.4903 270° West  Level FlightAware Approximate
11:22AM 40.4667 -74.0000 237° Southwest 331 381 10,800  Level New York TRACON
11:23AM 40.1833 -74.6249 270° West  Level FlightAware Approximate
11:23AM 40.4000 -74.1167 233° Southwest 380 437 12,500  Level New York TRACON
11:24AM 40.3289 -74.2558 236° Southwest 395 455 15,200 1,920 Climbing New York Center
11:25AM 40.2733 -74.3672 237° Southwest 406 467 16,900 840 Climbing New York Center
11:26AM 40.2181 -74.4758 236° Southwest 414 476 16,900 720 Level New York Center
11:27AM 40.1914 -74.6511 259° West 396 456 18,400 1,740 Climbing New York Center
11:28AM 40.1800 -74.8025 264° West 421 484 20,500 1,680 Climbing New York Center
11:29AM 40.1708 -74.9514 265° West 426 490 21,800 1,500 Climbing New York Center
11:30AM 40.1567 -75.1081 263° West 426 490 23,500 1,440 Climbing New York Center
11:31AM 40.1447 -75.2594 264° West 426 490 24,700 1,200 Climbing New York Center
11:32AM 40.1167 -75.3933 255° West 432 497 26,000 1,200 Climbing New York Center
11:33AM 40.0392 -75.5103 229° Southwest 407 468 27,200 1,260 Climbing New York Center
11:34AM 39.9597 -75.6186 226° Southwest 413 475 28,600 1,260 Climbing New York Center
11:35AM 39.8861 -75.7325 230° Southwest 418 481 29,800 960 Climbing New York Center
11:36AM 39.8147 -75.8436 230° Southwest 418 481 30,600 720 Climbing New York Center
11:37AM 39.6983 -76.0256 230° Southwest 413 475 31,800 540 Climbing Washington Center
11:38AM 39.6292 -76.1358 231° Southwest 403 464 32,000 60 Climbing Washington Center
11:39AM 39.5597 -76.2483 231° Southwest 403 464 32,000  Level Washington Center
11:40AM 39.4861 -76.3553 228° Southwest 403 464 32,000  Level Washington Center
11:41AM 39.4167 -76.4647 231° Southwest 403 464 32,000  Level Washington Center
11:42AM 39.3514 -76.5631 229° Southwest 403 464 32,000  Level Washington Center
11:43AM 39.2817 -76.6722 230° Southwest 403 464 32,000  Level Washington Center
11:44AM 39.2119 -76.7808 230° Southwest 398 458 32,000  Level Washington Center
11:45AM 39.1419 -76.8922 231° Southwest 403 464 32,000  Level Washington Center
11:46AM 39.0697 -77.0033 230° Southwest 403 464 32,000  Level Washington Center
11:47AM 38.9894 -77.1006 223° Southwest 403 464 32,000  Level Washington Center
11:48AM 38.9028 -77.1947 220° Southwest 403 464 32,000  Level Washington Center
11:49AM 38.8161 -77.2861 219° Southwest 408 470 32,000  Level Washington Center
11:50AM 38.7292 -77.3800 220° Southwest 408 470 32,000  Level Washington Center
11:51AM 38.6444 -77.4736 221° Southwest 408 470 32,000  Level Washington Center
11:52AM 38.5614 -77.5697 222° Southwest 413 475 32,000  Level Washington Center
11:53AM 38.4744 -77.6603 219° Southwest 413 475 32,000  Level Washington Center
11:54AM 38.3808 -77.7636 221° Southwest 413 475 32,000  Level Washington Center
11:55AM 38.2958 -77.8564 221° Southwest 413 475 32,000  Level Washington Center
11:56AM 38.2064 -77.9489 219° Southwest 413 475 32,000  Level Washington Center
11:57AM 38.1233 -78.0411 221° Southwest 413 475 32,000  Level Washington Center
11:58AM 38.0336 -78.1358 220° Southwest 413 475 32,000  Level Washington Center
11:59AM 37.9611 -78.2125 220° Southwest 398 458 32,000  Level Washington Center
12:00PM 37.8675 -78.3011 217° Southwest 411 473 32,000  Level Washington Center
12:01PM 37.7631 -78.3894 214° Southwest 411 473 32,000  Level Washington Center
12:02PM 37.6575 -78.4483 204° Southwest 417 480 32,000  Level Washington Center
12:03PM 37.5517 -78.5072 204° Southwest 417 480 32,000  Level Washington Center
12:04PM 37.4419 -78.5633 202° Southwest 422 486 32,000  Level Washington Center
12:05PM 37.3467 -78.6144 203° Southwest 422 486 32,000  Level Washington Center
12:06PM 37.2369 -78.6700 202° Southwest 422 486 32,000  Level Washington Center
12:07PM 37.1289 -78.7283 203° Southwest 422 486 32,000  Level Washington Center
12:08PM 37.0211 -78.7864 203° Southwest 422 486 32,000  Level Washington Center
12:09PM 36.9006 -78.8489 203° Southwest 422 486 32,000  Level Washington Center
12:10PM 36.7925 -78.9067 203° Southwest 422 486 32,000  Level Washington Center
12:11PM 36.6825 -78.9642 203° Southwest 422 486 32,000  Level Washington Center
12:12PM 36.5764 -79.0267 205° Southwest 422 486 32,000  Level Washington Center
12:13PM 36.4661 -79.0814 202° Southwest 427 491 32,000  Level Washington Center
12:14PM 36.3558 -79.1408 203° Southwest 427 491 32,000  Level Washington Center
12:15PM 36.2436 -79.1975 202° Southwest 427 491 32,000  Level Washington Center
12:16PM 36.1356 -79.2544 203° Southwest 427 491 32,000  Level Washington Center
12:17PM 36.0253 -79.3108 202° Southwest 427 491 32,000  Level Washington Center
12:18PM 35.9108 -79.3669 202° Southwest 427 491 32,000  Level Washington Center
12:19PM 35.8239 -79.4117 203° Southwest 427 491 32,000  Level Washington Center
12:20PM 35.6903 -79.4794 202° Southwest 427 491 32,000  Level Washington Center
12:21PM 35.5906 -79.5281 202° Southwest 427 491 32,000  Level Washington Center
12:22PM 35.4653 -79.5958 204° Southwest 440 506 32,000  Level Washington Center
12:23PM 35.3528 -79.6514 202° Southwest 440 506 32,000  Level Washington Center
12:24PM 35.2403 -79.7067 202° Southwest 440 506 32,000  Level Washington Center
12:27PM 34.9267 -79.8644 202° Southwest 453 521 32,000  Level Jacksonville Center
12:28PM 34.8111 -79.9217 202° Southwest 448 516 32,000  Level Jacksonville Center
12:29PM 34.6956 -79.9786 202° Southwest 448 516 32,000  Level Jacksonville Center
12:30PM 34.5822 -80.0328 201° Southwest 448 516 32,000  Level Jacksonville Center
12:31PM 34.4625 -80.0947 203° Southwest 440 506 32,000  Level Jacksonville Center
12:32PM 34.3469 -80.1539 203° Southwest 440 506 32,000  Level Jacksonville Center
12:33PM 34.2294 -80.2078 201° Southwest 450 518 32,000  Level Jacksonville Center
12:34PM 34.1136 -80.2639 202° Southwest 450 518 32,000  Level Jacksonville Center
12:35PM 33.9958 -80.3200 202° Southwest 450 518 32,000  Level Jacksonville Center
12:36PM 33.8758 -80.3661 198° South 450 518 32,000 -60 Level Jacksonville Center
12:37PM 33.7536 -80.4072 196° South 450 518 31,900  Descending Jacksonville Center
12:38PM 33.6292 -80.4481 195° South 455 524 32,000  Climbing Jacksonville Center
12:39PM 33.5047 -80.4864 194° South 455 524 32,000  Level Jacksonville Center
12:40PM 33.3822 -80.5269 195° South 455 524 32,000  Level Jacksonville Center
12:41PM 33.2578 -80.5700 196° South 455 524 32,000  Level Jacksonville Center
12:42PM 33.1311 -80.6081 194° South 455 524 32,000  Level Jacksonville Center
12:43PM 33.0089 -80.6483 195° South 460 529 32,000  Level Jacksonville Center
12:44PM 32.8967 -80.6808 194° South 465 535 32,000  Level Jacksonville Center
12:45PM 32.7722 -80.7208 195° South 465 535 32,000 -60 Level Jacksonville Center
12:46PM 32.6497 -80.7608 195° South 465 535 31,900 -900 Descending Jacksonville Center
12:47PM 32.5272 -80.8031 196° South 465 535 30,300 -960 Descending Jacksonville Center
12:48PM 32.4031 -80.8700 204° Southwest 465 535 30,000 -180 Descending Jacksonville Center
12:49PM 32.2997 -80.9336 207° Southwest 458 527 30,000  Level Jacksonville Center
12:50PM 32.1775 -81.0100 208° Southwest 458 527 30,000  Level Jacksonville Center
12:51PM 32.0722 -81.0758 208° Southwest 471 542 30,000  Level Jacksonville Center
12:52PM 31.9561 -81.1442 207° Southwest 471 542 30,000  Level Jacksonville Center
12:53PM 31.8319 -81.2225 208° Southwest 466 536 30,000  Level Jacksonville Center
12:54PM 31.7200 -81.2928 208° Southwest 461 531 30,000  Level Jacksonville Center
12:55PM 31.6186 -81.3556 208° Southwest 461 531 30,000  Level Jacksonville Center
12:56PM 31.4942 -81.4308 207° Southwest 461 531 30,000  Level Jacksonville Center
12:57PM 31.3947 -81.4931 208° Southwest 456 525 30,000  Level Jacksonville Center
12:58PM 31.2806 -81.5628 208° Southwest 456 525 30,000  Level Jacksonville Center
12:59PM 31.1686 -81.6325 208° Southwest 456 525 30,000  Level Jacksonville Center
01:00PM 31.0544 -81.6994 207° Southwest 456 525 30,000  Level Jacksonville Center
01:01PM 30.9444 -81.7686 208° Southwest 456 525 30,000  Level Jacksonville Center
01:02PM 30.8322 -81.8353 207° Southwest 456 525 30,000  Level Jacksonville Center
01:03PM 30.7219 -81.9042 208° Southwest 456 525 30,000  Level Jacksonville Center
01:04PM 30.6056 -81.9706 206° Southwest 456 525 30,000  Level Jacksonville Center
01:05PM 30.4850 -82.0392 206° Southwest 451 519 30,000  Level Jacksonville Center
01:06PM 30.3728 -82.1053 207° Southwest 458 527 30,000  Level Jacksonville Center
01:07PM 30.2625 -82.1736 208° Southwest 448 516 30,000 -60 Level Jacksonville Center
01:08PM 30.1458 -82.2225 200° South 448 516 29,900 -480 Descending Jacksonville Center
01:09PM 30.0203 -82.2017 172° South 435 501 29,100 -1,020 Descending Jacksonville Center
01:10PM 29.9011 -82.1786 170° South 435 501 27,900 -1,260 Descending Jacksonville Center
01:11PM 29.7883 -82.1578 171° South 428 493 26,600 -1,620 Descending Jacksonville Center
01:12PM 29.6839 -82.1325 168° South 407 468 24,700 -1,800 Descending Jacksonville Center
01:13PM 29.5794 -82.1117 170° South 395 455 23,000 -1,680 Descending Jacksonville Center
01:14PM 29.4811 -82.0933 171° South 381 438 21,400 -1,680 Descending Jacksonville Center
01:15PM 29.3850 -82.0633 165° South 361 415 19,700 -1,800 Descending Jacksonville Center
01:16PM 29.2908 -82.0353 165° South 356 410 17,900 -1,800 Descending Jacksonville Center
01:17PM 29.2008 -81.9933 158° South 349 402 16,100 -1,680 Descending Jacksonville Center
01:18PM 29.1169 -81.9394 151° Southeast 349 402 14,600 -1,500 Descending Jacksonville Center
01:19PM 29.0414 -81.8808 146° Southeast 343 395 13,100 -1,380 Descending Jacksonville Center
01:20PM 28.9758 -81.8078 136° Southeast 338 389 11,900 -1,320 Descending Jacksonville Center
01:21PM 28.9231 -81.7372 131° Southeast 327 376 10,500 -1,500 Descending Jacksonville Center
01:22PM 28.8681 -81.6550 127° Southeast 327 376 9,000 -1,920 Descending Jacksonville Center
01:23PM 28.8333 -81.5833 119° Southeast 315 362 7,400 -1,440 Descending Orlando TRACON
01:24PM 28.7833 -81.5333 139° Southeast 294 338 6,900 -600 Descending Orlando TRACON
01:25PM 28.7500 -81.4667 120° Southeast 256 295 6,400 -1,440 Descending Orlando TRACON
01:26PM 28.7000 -81.4000 131° Southeast 244 281 3,900 -1,620 Descending Orlando TRACON
01:27PM 28.6500 -81.3500 139° Southeast 237 273 3,000 -720 Descending Orlando TRACON
01:28PM 28.5833 -81.3333 168° South 222 255 2,500 -540 Descending Orlando TRACON